Dobrodošli na spletni strani vremenske postaje Senovo. Vse informacije so informativnega značaja, saj vremenska postaja ni del državne mreže meteoroloških postaj. AKTUALNIH OBVESTIL NI.


Sneg/Led Od: 21-02-2018 00:00 Do: 23-02-2018 23:59 Opozorilo za: Sneg/Led Stopnja: Rumena info button
Veter Od: 21-02-2018 00:00 Do: 22-02-2018 23:59 Opozorilo za: Veter Stopnja: Rumena info button

Pogled proti Armezu več informacij Pogled proti Armezu


Lisca več informacij Lisca


Radar strel več informacij blitzortung!


opozorilo za sneg/led več informacij rain snow radar


Obiščite še:

Template documentation
and downloads

And another site



Weather Underground, zgodovina - Tekstovno

Dnevni povzetek za Januar 12, 2018 Enote:  Obe    Angleško   Metrično
« Predhodni Dan
Naslednji Dan »
Dnevni Tedenski Mesečni Letni Po meri
  Višja: Nižja: Povprečje:
Temperatura: TemperatureC °F /  -17.8 °C 0.8 °F /  -17.3 °C 4.3 °F /  -15.4 °C
Točka rosišča: DewpointC °F /  -17.8 °C 0.2 °F /  -17.7 °C 2.9 °F /  -16.2 °C
Vlažnost: Humidity % 82 % 90 %
Hitrost vetra: WindSpeedKMH mph /  0 km/h - 4.1 mph /  6.6 km/h
Sunki vetra: WindSpeedGustKMH mph /  0 km/h - -
Veter:- - East
Zračni tlak: PressurehPa in /  0 hPa 1016.1 in /  34405.1 hPa -
Padavine: 1.0 in /  25.4 mm    
Historical Graphs
 
 
Tabelarni podarki za Januar 12, 2018
Čas Temperatura Točka rosišča Zračni tlak Veter Hitrost vetra Sunki vetra Vlažnost Intenziteta padavin (urna)
TemperatureC °F /  -17.8 °C DewpointC °F /  -17.8 °C PressurehPa in /  0 hPa Calm     Humidity % HourlyPrecipMM in /  0 mm
00:01 4.7 °F /  -15.2 °C 3.8 °F /  -15.7 °C 1018.2 in /  34476.3 hPa Calm     94 % 0.0 in /  0 mm
00:08 4.6 °F /  -15.2 °C 3.7 °F /  -15.7 °C 1018.2 in /  34476.3 hPa Calm     94 % 0.0 in /  0 mm
00:16 4.6 °F /  -15.2 °C 3.7 °F /  -15.7 °C 1016.8 in /  34428.8 hPa Calm     94 % 0.0 in /  0 mm
00:36 4.6 °F /  -15.2 °C 3.7 °F /  -15.7 °C 1016.8 in /  34428.8 hPa Calm     94 % 0.0 in /  0 mm
00:37 4.6 °F /  -15.2 °C 3.7 °F /  -15.7 °C 1016.8 in /  34428.8 hPa Calm     94 % 0.0 in /  0 mm
00:48 4.6 °F /  -15.2 °C 3.7 °F /  -15.7 °C 1016.8 in /  34428.8 hPa Calm     94 % 0.0 in /  0 mm
00:51 4.6 °F /  -15.2 °C 3.7 °F /  -15.7 °C 1016.8 in /  34428.8 hPa Calm     94 % 0.0 in /  0 mm
01:05 4.6 °F /  -15.2 °C 3.9 °F /  -15.6 °C 1018.2 in /  34476.3 hPa Calm     95 % 0.0 in /  0 mm
01:23 4.6 °F /  -15.2 °C 3.9 °F /  -15.6 °C 1018.2 in /  34476.3 hPa SW 2.7 mph /  4.3 km/h 6.1 mph /  9.8 km/h 95 % 0.0 in /  0 mm
01:51 4.7 °F /  -15.2 °C 3.9 °F /  -15.6 °C 1016.1 in /  34405.1 hPa Calm     95 % 0.0 in /  0 mm
01:56 4.7 °F /  -15.2 °C 3.9 °F /  -15.6 °C 1016.1 in /  34405.1 hPa Calm     95 % 0.0 in /  0 mm
02:11 4.6 °F /  -15.2 °C 3.9 °F /  -15.6 °C 1016.8 in /  34428.8 hPa Calm     95 % 0.0 in /  0 mm
02:27 4.6 °F /  -15.2 °C 3.9 °F /  -15.6 °C 1016.8 in /  34428.8 hPa SW 0.3 mph /  0.5 km/h 3.5 mph /  5.6 km/h 95 % 0.0 in /  0 mm
02:39 4.6 °F /  -15.2 °C 3.9 °F /  -15.6 °C 1016.8 in /  34428.8 hPa Calm     95 % 0.0 in /  0 mm
02:43 4.5 °F /  -15.3 °C 3.8 °F /  -15.7 °C 1016.8 in /  34428.8 hPa Calm     95 % 0.0 in /  0 mm
02:48 4.5 °F /  -15.3 °C 3.8 °F /  -15.7 °C 1016.8 in /  34428.8 hPa Calm     95 % 0.0 in /  0 mm
02:53 4.5 °F /  -15.3 °C 3.8 °F /  -15.7 °C 1016.8 in /  34428.8 hPa Calm     95 % 0.0 in /  0 mm
03:04 4.4 °F /  -15.3 °C 3.7 °F /  -15.7 °C 1016.8 in /  34428.8 hPa Calm     95 % 0.0 in /  0 mm
03:23 4.2 °F /  -15.4 °C 3.4 °F /  -15.9 °C 1016.8 in /  34428.8 hPa Calm     95 % 0.0 in /  0 mm
03:31 4.2 °F /  -15.4 °C 3.4 °F /  -15.9 °C 1016.8 in /  34428.8 hPa Calm     95 % 0.0 in /  0 mm
03:36 4.1 °F /  -15.5 °C 3.4 °F /  -15.9 °C 1016.8 in /  34428.8 hPa Calm     95 % 0.0 in /  0 mm
03:41 4.1 °F /  -15.5 °C 3.4 °F /  -15.9 °C 1016.8 in /  34428.8 hPa Calm     95 % 0.0 in /  0 mm
03:48 4.0 °F /  -15.6 °C 3.3 °F /  -15.9 °C 1016.8 in /  34428.8 hPa Calm     95 % 0.0 in /  0 mm
03:53 3.9 °F /  -15.6 °C 3.3 °F /  -15.9 °C 1016.8 in /  34428.8 hPa Calm     96 % 0.0 in /  0 mm
04:02 3.7 °F /  -15.7 °C 3.1 °F /  -16.1 °C 1016.8 in /  34428.8 hPa Calm     96 % 0.0 in /  0 mm
04:08 3.7 °F /  -15.7 °C 3.1 °F /  -16.1 °C 1016.8 in /  34428.8 hPa Calm     96 % 0.0 in /  0 mm
04:13 3.6 °F /  -15.8 °C 2.9 °F /  -16.2 °C 1016.8 in /  34428.8 hPa Calm     95 % 0.0 in /  0 mm
04:25 3.2 °F /  -16 °C 2.5 °F /  -16.4 °C 1016.8 in /  34428.8 hPa Calm     95 % 0.0 in /  0 mm
04:31 3.1 °F /  -16.1 °C 2.4 °F /  -16.4 °C 1018.2 in /  34476.3 hPa SW 0.2 mph /  0.3 km/h 3.2 mph /  5.1 km/h 95 % 0.0 in /  0 mm
04:36 2.9 °F /  -16.2 °C 2.3 °F /  -16.5 °C 1018.2 in /  34476.3 hPa SW 0.5 mph /  0.8 km/h 3.2 mph /  5.1 km/h 96 % 0.0 in /  0 mm
04:51 2.6 °F /  -16.3 °C 1.9 °F /  -16.7 °C 1018.2 in /  34476.3 hPa Calm     95 % 0.0 in /  0 mm
04:58 2.5 °F /  -16.4 °C 1.8 °F /  -16.8 °C 1018.2 in /  34476.3 hPa Calm     95 % 0.0 in /  0 mm
05:04 2.4 °F /  -16.4 °C 1.7 °F /  -16.8 °C 1018.2 in /  34476.3 hPa Calm     95 % 0.0 in /  0 mm
05:10 2.4 °F /  -16.4 °C 1.7 °F /  -16.8 °C 1018.2 in /  34476.3 hPa Calm     95 % 0.0 in /  0 mm
05:15 2.3 °F /  -16.5 °C 1.6 °F /  -16.9 °C 1018.2 in /  34476.3 hPa Calm     95 % 0.0 in /  0 mm
05:22 2.2 °F /  -16.6 °C 1.5 °F /  -16.9 °C 1018.2 in /  34476.3 hPa Calm     95 % 0.0 in /  0 mm
05:27 2.1 °F /  -16.6 °C 1.4 °F /  -17 °C 1018.2 in /  34476.3 hPa Calm     95 % 0.0 in /  0 mm
05:34 2.0 °F /  -16.7 °C 1.3 °F /  -17.1 °C 1018.2 in /  34476.3 hPa Calm     95 % 0.0 in /  0 mm
05:39 1.9 °F /  -16.7 °C 1.3 °F /  -17.1 °C 1018.2 in /  34476.3 hPa Calm     96 % 0.0 in /  0 mm
05:45 1.8 °F /  -16.8 °C 1.2 °F /  -17.1 °C 1018.2 in /  34476.3 hPa Calm     96 % 0.0 in /  0 mm
05:51 1.7 °F /  -16.8 °C 1.0 °F /  -17.2 °C 1018.2 in /  34476.3 hPa Calm     95 % 0.0 in /  0 mm
05:58 1.6 °F /  -16.9 °C 0.9 °F /  -17.3 °C 1018.2 in /  34476.3 hPa Calm     95 % 0.0 in /  0 mm
06:04 1.6 °F /  -16.9 °C 0.9 °F /  -17.3 °C 1018.2 in /  34476.3 hPa Calm     95 % 0.0 in /  0 mm
06:09 1.6 °F /  -16.9 °C 1.1 °F /  -17.2 °C 1018.2 in /  34476.3 hPa Calm     96 % 0.0 in /  0 mm
06:16 1.6 °F /  -16.9 °C 0.9 °F /  -17.3 °C 1018.2 in /  34476.3 hPa Calm     95 % 0.0 in /  0 mm
06:29 1.4 °F /  -17 °C 0.8 °F /  -17.3 °C 1018.8 in /  34496.6 hPa Calm     96 % 0.0 in /  0 mm
06:38 1.4 °F /  -17 °C 0.8 °F /  -17.3 °C 1018.8 in /  34496.6 hPa Calm     96 % 0.0 in /  0 mm
06:54 1.2 °F /  -17.1 °C 0.6 °F /  -17.4 °C 1018.8 in /  34496.6 hPa Calm     96 % 0.0 in /  0 mm
07:00 1.2 °F /  -17.1 °C 0.6 °F /  -17.4 °C 1019.9 in /  34533.8 hPa Calm     96 % 0.0 in /  0 mm
07:06 1.1 °F /  -17.2 °C 0.6 °F /  -17.4 °C 1019.9 in /  34533.8 hPa Calm     96 % 0.0 in /  0 mm
07:16 1.0 °F /  -17.2 °C 0.3 °F /  -17.6 °C 1019.9 in /  34533.8 hPa Calm     95 % 0.0 in /  0 mm
07:23 1.0 °F /  -17.2 °C 0.4 °F /  -17.6 °C 1019.9 in /  34533.8 hPa Calm     96 % 0.0 in /  0 mm
07:40 0.8 °F /  -17.3 °C 0.2 °F /  -17.7 °C 1018.8 in /  34496.6 hPa Calm     96 % 0.0 in /  0 mm
07:48 0.9 °F /  -17.3 °C 0.3 °F /  -17.6 °C 1018.8 in /  34496.6 hPa Calm     96 % 0.0 in /  0 mm
07:57 0.9 °F /  -17.3 °C 0.3 °F /  -17.6 °C 1018.8 in /  34496.6 hPa Calm     96 % 0.0 in /  0 mm
08:04 0.9 °F /  -17.3 °C 0.3 °F /  -17.6 °C 1018.8 in /  34496.6 hPa Calm     96 % 0.0 in /  0 mm
08:18 1.1 °F /  -17.2 °C 0.6 °F /  -17.4 °C 1018.8 in /  34496.6 hPa Calm     96 % 0.0 in /  0 mm
08:24 1.1 °F /  -17.2 °C 0.6 °F /  -17.4 °C 1018.8 in /  34496.6 hPa Calm     96 % 0.0 in /  0 mm
08:34 1.2 °F /  -17.1 °C 0.6 °F /  -17.4 °C 1018.8 in /  34496.6 hPa Calm     96 % 0.0 in /  0 mm
08:42 1.3 °F /  -17.1 °C 0.7 °F /  -17.4 °C 1019.9 in /  34533.8 hPa Calm     96 % 0.0 in /  0 mm
08:49 1.4 °F /  -17 °C 0.8 °F /  -17.3 °C 1019.9 in /  34533.8 hPa Calm     96 % 0.0 in /  0 mm
09:11 1.8 °F /  -16.8 °C 1.4 °F /  -17 °C 1019.9 in /  34533.8 hPa Calm     97 % 0.0 in /  0 mm
09:16 1.9 °F /  -16.7 °C 1.5 °F /  -16.9 °C 1019.9 in /  34533.8 hPa Calm     97 % 0.0 in /  0 mm
09:27 2.1 °F /  -16.6 °C 1.6 °F /  -16.9 °C 1019.9 in /  34533.8 hPa Calm     96 % 0.0 in /  0 mm
09:34 2.3 °F /  -16.5 °C 1.9 °F /  -16.7 °C 1019.9 in /  34533.8 hPa Calm     97 % 0.0 in /  0 mm
09:50 2.9 °F /  -16.2 °C 2.4 °F /  -16.4 °C 1019.9 in /  34533.8 hPa Calm   2.1 mph /  3.4 km/h 97 % 0.0 in /  0 mm
09:59 3.1 °F /  -16.1 °C 2.7 °F /  -16.3 °C 1020.9 in /  34567.7 hPa Calm     97 % 0.0 in /  0 mm
10:11 3.5 °F /  -15.8 °C 3.1 °F /  -16.1 °C 1020.9 in /  34567.7 hPa Calm     97 % 0.0 in /  0 mm
10:16 3.6 °F /  -15.8 °C 3.2 °F /  -16 °C 1020.9 in /  34567.7 hPa Calm     97 % 0.0 in /  0 mm
10:22 3.8 °F /  -15.7 °C 3.4 °F /  -15.9 °C 1020.9 in /  34567.7 hPa Calm     97 % 0.0 in /  0 mm
10:27 4.0 °F /  -15.6 °C 3.6 °F /  -15.8 °C 1020.9 in /  34567.7 hPa Calm     97 % 0.0 in /  0 mm
10:38 4.3 °F /  -15.4 °C 3.9 °F /  -15.6 °C 1020.9 in /  34567.7 hPa ESE 0.3 mph /  0.5 km/h 4.0 mph /  6.4 km/h 97 % 0.0 in /  0 mm
10:46 4.4 °F /  -15.3 °C 3.9 °F /  -15.6 °C 1020.9 in /  34567.7 hPa NNE 0.6 mph /  1 km/h 4.3 mph /  6.9 km/h 97 % 0.0 in /  0 mm
10:52 4.6 °F /  -15.2 °C 4.2 °F /  -15.4 °C 1020.9 in /  34567.7 hPa ESE 1.9 mph /  3.1 km/h 4.3 mph /  6.9 km/h 97 % 0.0 in /  0 mm
11:07 5.2 °F /  -14.9 °C 4.8 °F /  -15.1 °C 1021.9 in /  34601.5 hPa South 3.7 mph /  6 km/h 6.9 mph /  11.1 km/h 97 % 0.0 in /  0 mm
11:15 5.4 °F /  -14.8 °C 4.9 °F /  -15.1 °C 1020.9 in /  34567.7 hPa SE 3.1 mph /  5 km/h 6.9 mph /  11.1 km/h 97 % 0.0 in /  0 mm
11:21 5.6 °F /  -14.7 °C 5.2 °F /  -14.9 °C 1020.9 in /  34567.7 hPa SE 2.6 mph /  4.2 km/h 6.1 mph /  9.8 km/h 97 % 0.0 in /  0 mm
11:40 6.2 °F /  -14.3 °C 5.8 °F /  -14.6 °C 1020.9 in /  34567.7 hPa East 5.6 mph /  9 km/h 10.5 mph /  16.9 km/h 97 % 0.0 in /  0 mm
11:47 6.3 °F /  -14.3 °C 5.8 °F /  -14.6 °C 1020.9 in /  34567.7 hPa East 6.1 mph /  9.8 km/h 10.5 mph /  16.9 km/h 97 % 0.0 in /  0 mm
12:18 6.5 °F /  -14.2 °C 5.9 °F /  -14.5 °C 1020.9 in /  34567.7 hPa ESE 7.2 mph /  11.6 km/h 14.0 mph /  22.5 km/h 96 % 0.0 in /  0 mm
12:24 6.7 °F /  -14.1 °C 6.1 °F /  -14.4 °C 1020.9 in /  34567.7 hPa East 6.9 mph /  11.1 km/h 12.6 mph /  20.3 km/h 96 % 0.0 in /  0 mm
12:32 6.7 °F /  -14.1 °C 5.9 °F /  -14.5 °C 1019.9 in /  34533.8 hPa East 8.8 mph /  14.2 km/h 16.3 mph /  26.2 km/h 95 % 0.0 in /  0 mm
12:39 6.7 °F /  -14.1 °C 5.8 °F /  -14.6 °C 1019.9 in /  34533.8 hPa East 8.8 mph /  14.2 km/h 13.7 mph /  22 km/h 94 % 0.0 in /  0 mm
12:44 6.5 °F /  -14.2 °C 5.6 °F /  -14.7 °C 1019.9 in /  34533.8 hPa East 9.3 mph /  15 km/h 15.8 mph /  25.4 km/h 94 % 0.0 in /  0 mm
12:49 6.6 °F /  -14.1 °C 5.6 °F /  -14.7 °C 1019.9 in /  34533.8 hPa East 9.5 mph /  15.3 km/h 15.8 mph /  25.4 km/h 93 % 0.0 in /  0 mm
13:02 6.6 °F /  -14.1 °C 5.2 °F /  -14.9 °C 1019.9 in /  34533.8 hPa ESE 8.7 mph /  14 km/h 16.6 mph /  26.7 km/h 91 % 0.0 in /  0 mm
13:11 6.5 °F /  -14.2 °C 5.0 °F /  -15 °C 1019.9 in /  34533.8 hPa ESE 7.6 mph /  12.2 km/h 15.4 mph /  24.8 km/h 90 % 0.0 in /  0 mm
13:17 6.5 °F /  -14.2 °C 4.8 °F /  -15.1 °C 1019.9 in /  34533.8 hPa East 8.0 mph /  12.9 km/h 15.8 mph /  25.4 km/h 89 % 0.0 in /  0 mm
13:41 6.3 °F /  -14.3 °C 4.3 °F /  -15.4 °C 1019.9 in /  34533.8 hPa East 9.0 mph /  14.5 km/h 15.8 mph /  25.4 km/h 87 % 0.0 in /  0 mm
13:51 6.2 °F /  -14.3 °C 4.1 °F /  -15.5 °C 1019.9 in /  34533.8 hPa East 9.0 mph /  14.5 km/h 15.4 mph /  24.8 km/h 86 % 0.0 in /  0 mm
13:59 6.1 °F /  -14.4 °C 3.9 °F /  -15.6 °C 1019.9 in /  34533.8 hPa East 8.7 mph /  14 km/h 16.6 mph /  26.7 km/h 86 % 0.0 in /  0 mm
14:04 6.1 °F /  -14.4 °C 3.8 °F /  -15.7 °C 1019.9 in /  34533.8 hPa East 7.9 mph /  12.7 km/h 16.6 mph /  26.7 km/h 85 % 0.0 in /  0 mm
14:14 6.1 °F /  -14.4 °C 3.8 °F /  -15.7 °C 1020.9 in /  34567.7 hPa ESE 6.8 mph /  10.9 km/h 13.7 mph /  22 km/h 85 % 0.0 in /  0 mm
14:22 6.1 °F /  -14.4 °C 3.6 °F /  -15.8 °C 1020.9 in /  34567.7 hPa East 8.5 mph /  13.7 km/h 16.3 mph /  26.2 km/h 84 % 0.0 in /  0 mm
14:31 6.1 °F /  -14.4 °C 3.6 °F /  -15.8 °C 1020.9 in /  34567.7 hPa East 8.2 mph /  13.2 km/h 15.8 mph /  25.4 km/h 84 % 0.0 in /  0 mm
14:43 6.1 °F /  -14.4 °C 3.4 °F /  -15.9 °C 1020.9 in /  34567.7 hPa East 8.2 mph /  13.2 km/h 18.0 mph /  29 km/h 83 % 0.0 in /  0 mm
14:48 6.0 °F /  -14.4 °C 3.3 °F /  -15.9 °C 1020.9 in /  34567.7 hPa East 7.4 mph /  11.9 km/h 17.7 mph /  28.5 km/h 83 % 0.0 in /  0 mm
14:56 6.0 °F /  -14.4 °C 3.2 °F /  -16 °C 1020.9 in /  34567.7 hPa East 7.6 mph /  12.2 km/h 14.8 mph /  23.8 km/h 82 % 0.0 in /  0 mm
15:04 6.0 °F /  -14.4 °C 3.2 °F /  -16 °C 1020.9 in /  34567.7 hPa East 6.9 mph /  11.1 km/h 14.0 mph /  22.5 km/h 82 % 0.0 in /  0 mm
15:10 6.0 °F /  -14.4 °C 3.2 °F /  -16 °C 1020.9 in /  34567.7 hPa ENE 8.0 mph /  12.9 km/h 14.0 mph /  22.5 km/h 82 % 0.0 in /  0 mm
15:17 6.0 °F /  -14.4 °C 3.2 °F /  -16 °C 1020.9 in /  34567.7 hPa East 7.4 mph /  11.9 km/h 14.0 mph /  22.5 km/h 82 % 0.0 in /  0 mm
15:22 6.0 °F /  -14.4 °C 3.2 °F /  -16 °C 1020.9 in /  34567.7 hPa East 4.5 mph /  7.2 km/h 11.9 mph /  19.2 km/h 82 % 0.0 in /  0 mm
15:27 5.9 °F /  -14.5 °C 3.1 °F /  -16.1 °C 1020.9 in /  34567.7 hPa East 3.9 mph /  6.3 km/h 7.9 mph /  12.7 km/h 82 % 0.0 in /  0 mm
15:37 5.9 °F /  -14.5 °C 3.1 °F /  -16.1 °C 1020.9 in /  34567.7 hPa ESE 3.4 mph /  5.5 km/h 6.9 mph /  11.1 km/h 82 % 0.0 in /  0 mm
15:54 5.8 °F /  -14.6 °C 2.9 °F /  -16.2 °C 1020.9 in /  34567.7 hPa East 9.3 mph /  15 km/h 15.4 mph /  24.8 km/h 82 % 0.0 in /  0 mm
16:02 5.8 °F /  -14.6 °C 2.9 °F /  -16.2 °C 1020.9 in /  34567.7 hPa East 9.5 mph /  15.3 km/h 15.4 mph /  24.8 km/h 82 % 0.3 in /  7.62 mm
16:10 5.7 °F /  -14.6 °C 2.9 °F /  -16.2 °C 1020.9 in /  34567.7 hPa East 10.1 mph /  16.3 km/h 17.2 mph /  27.7 km/h 82 % 0.3 in /  7.62 mm
16:18 5.7 °F /  -14.6 °C 2.9 °F /  -16.2 °C 1019.9 in /  34533.8 hPa ENE 7.9 mph /  12.7 km/h 13.7 mph /  22 km/h 82 % 0.3 in /  7.62 mm
16:29 5.6 °F /  -14.7 °C 2.8 °F /  -16.2 °C 1019.9 in /  34533.8 hPa ENE 7.2 mph /  11.6 km/h 13.0 mph /  20.9 km/h 82 % 0.3 in /  7.62 mm
16:38 5.6 °F /  -14.7 °C 2.9 °F /  -16.2 °C 1019.9 in /  34533.8 hPa East 7.6 mph /  12.2 km/h 14.0 mph /  22.5 km/h 83 % 0.3 in /  7.62 mm
16:48 5.6 °F /  -14.7 °C 2.9 °F /  -16.2 °C 1020.9 in /  34567.7 hPa East 8.7 mph /  14 km/h 19.8 mph /  31.9 km/h 83 % 0.3 in /  7.62 mm
16:55 5.6 °F /  -14.7 °C 2.9 °F /  -16.2 °C 1020.9 in /  34567.7 hPa East 10.0 mph /  16.1 km/h 19.8 mph /  31.9 km/h 83 % 0.3 in /  7.62 mm
17:05 5.6 °F /  -14.7 °C 2.9 °F /  -16.2 °C 1020.9 in /  34567.7 hPa East 12.1 mph /  19.5 km/h 23.8 mph /  38.3 km/h 83 % 0.0 in /  0 mm
17:10 5.5 °F /  -14.7 °C 2.8 °F /  -16.2 °C 1020.9 in /  34567.7 hPa East 11.6 mph /  18.7 km/h 21.2 mph /  34.1 km/h 83 % 0.0 in /  0 mm
17:20 5.4 °F /  -14.8 °C 2.7 °F /  -16.3 °C 1020.9 in /  34567.7 hPa East 9.7 mph /  15.6 km/h 16.6 mph /  26.7 km/h 83 % 0.0 in /  0 mm
17:25 5.4 °F /  -14.8 °C 2.7 °F /  -16.3 °C 1020.9 in /  34567.7 hPa East 8.0 mph /  12.9 km/h 13.7 mph /  22 km/h 83 % 0.0 in /  0 mm
17:30 5.3 °F /  -14.8 °C 2.8 °F /  -16.2 °C 1020.9 in /  34567.7 hPa East 7.1 mph /  11.4 km/h 12.6 mph /  20.3 km/h 84 % 0.0 in /  0 mm
17:36 5.3 °F /  -14.8 °C 2.8 °F /  -16.2 °C 1020.9 in /  34567.7 hPa ENE 6.3 mph /  10.1 km/h 10.5 mph /  16.9 km/h 84 % 0.3 in /  7.62 mm
17:41 5.3 °F /  -14.8 °C 2.8 °F /  -16.2 °C 1020.9 in /  34567.7 hPa ENE 6.8 mph /  10.9 km/h 16.3 mph /  26.2 km/h 84 % 0.3 in /  7.62 mm
17:47 5.3 °F /  -14.8 °C 2.8 °F /  -16.2 °C 1020.9 in /  34567.7 hPa ENE 7.1 mph /  11.4 km/h 16.3 mph /  26.2 km/h 84 % 0.3 in /  7.62 mm
17:52 5.2 °F /  -14.9 °C 2.7 °F /  -16.3 °C 1020.9 in /  34567.7 hPa ENE 6.3 mph /  10.1 km/h 12.2 mph /  19.6 km/h 84 % 0.3 in /  7.62 mm
18:01 5.2 °F /  -14.9 °C 2.7 °F /  -16.3 °C 1021.9 in /  34601.5 hPa ENE 7.7 mph /  12.4 km/h 15.4 mph /  24.8 km/h 84 % 0.3 in /  7.62 mm
18:23 5.2 °F /  -14.9 °C 2.9 °F /  -16.2 °C 1021.9 in /  34601.5 hPa East 7.7 mph /  12.4 km/h 21.2 mph /  34.1 km/h 85 % 0.3 in /  7.62 mm
18:28 5.2 °F /  -14.9 °C 2.9 °F /  -16.2 °C 1021.9 in /  34601.5 hPa East 9.2 mph /  14.8 km/h 14.0 mph /  22.5 km/h 85 % 0.3 in /  7.62 mm
18:34 5.1 °F /  -14.9 °C 2.8 °F /  -16.2 °C 1021.9 in /  34601.5 hPa East 6.9 mph /  11.1 km/h 14.0 mph /  22.5 km/h 85 % 0.3 in /  7.62 mm
18:41 5.1 °F /  -14.9 °C 2.8 °F /  -16.2 °C 1021.9 in /  34601.5 hPa East 5.0 mph /  8 km/h 12.2 mph /  19.6 km/h 85 % 0.3 in /  7.62 mm
18:51 5.1 °F /  -14.9 °C 2.8 °F /  -16.2 °C 1021.9 in /  34601.5 hPa ENE 6.8 mph /  10.9 km/h 15.8 mph /  25.4 km/h 85 % 0.3 in /  7.62 mm
18:57 5.1 °F /  -14.9 °C 2.8 °F /  -16.2 °C 1022.9 in /  34635.4 hPa ENE 7.2 mph /  11.6 km/h 15.8 mph /  25.4 km/h 85 % 0.3 in /  7.62 mm
19:03 5.1 °F /  -14.9 °C 2.9 °F /  -16.2 °C 1022.9 in /  34635.4 hPa East 5.6 mph /  9 km/h 10.8 mph /  17.4 km/h 86 % 0.3 in /  7.62 mm
19:11 5.0 °F /  -15 °C 2.8 °F /  -16.2 °C 1022.9 in /  34635.4 hPa ENE 7.7 mph /  12.4 km/h 16.9 mph /  27.2 km/h 86 % 0.3 in /  7.62 mm
19:47 4.9 °F /  -15.1 °C 2.8 °F /  -16.2 °C 1022.9 in /  34635.4 hPa ENE 6.9 mph /  11.1 km/h 16.3 mph /  26.2 km/h 86 % 0.3 in /  7.62 mm
19:52 4.9 °F /  -15.1 °C 2.8 °F /  -16.2 °C 1022.9 in /  34635.4 hPa East 6.8 mph /  10.9 km/h 11.9 mph /  19.2 km/h 86 % 0.3 in /  7.62 mm
19:57 4.9 °F /  -15.1 °C 2.8 °F /  -16.2 °C 1022.9 in /  34635.4 hPa East 7.2 mph /  11.6 km/h 11.9 mph /  19.2 km/h 86 % 0.3 in /  7.62 mm
20:10 4.8 °F /  -15.1 °C 2.7 °F /  -16.3 °C 1022.9 in /  34635.4 hPa East 8.8 mph /  14.2 km/h 13.7 mph /  22 km/h 86 % 0.3 in /  7.62 mm
20:16 4.8 °F /  -15.1 °C 2.8 °F /  -16.2 °C 1022.9 in /  34635.4 hPa ENE 8.4 mph /  13.5 km/h 13.0 mph /  20.9 km/h 87 % 0.3 in /  7.62 mm
20:28 4.8 °F /  -15.1 °C 2.8 °F /  -16.2 °C 1022.9 in /  34635.4 hPa ENE 8.0 mph /  12.9 km/h 17.7 mph /  28.5 km/h 87 % 0.3 in /  7.62 mm
20:39 4.9 °F /  -15.1 °C 2.9 °F /  -16.2 °C 1022.9 in /  34635.4 hPa East 8.5 mph /  13.7 km/h 17.2 mph /  27.7 km/h 87 % 0.3 in /  7.62 mm
21:09 5.0 °F /  -15 °C 3.0 °F /  -16.1 °C 1022.9 in /  34635.4 hPa East 9.2 mph /  14.8 km/h 14.0 mph /  22.5 km/h 87 % 0.3 in /  7.62 mm
21:14 5.0 °F /  -15 °C 3.0 °F /  -16.1 °C 1022.9 in /  34635.4 hPa ESE 8.4 mph /  13.5 km/h 14.0 mph /  22.5 km/h 87 % 0.3 in /  7.62 mm
21:21 5.0 °F /  -15 °C 3.0 °F /  -16.1 °C 1022.9 in /  34635.4 hPa East 6.9 mph /  11.1 km/h 12.6 mph /  20.3 km/h 87 % 0.3 in /  7.62 mm
21:29 5.0 °F /  -15 °C 3.0 °F /  -16.1 °C 1021.9 in /  34601.5 hPa East 7.6 mph /  12.2 km/h 12.2 mph /  19.6 km/h 87 % 0.3 in /  7.62 mm
21:39 5.1 °F /  -14.9 °C 3.1 °F /  -16.1 °C 1021.9 in /  34601.5 hPa ENE 6.9 mph /  11.1 km/h 17.7 mph /  28.5 km/h 87 % 0.0 in /  0 mm
21:50 5.1 °F /  -14.9 °C 3.1 °F /  -16.1 °C 1022.9 in /  34635.4 hPa ENE 7.9 mph /  12.7 km/h 17.2 mph /  27.7 km/h 87 % 0.0 in /  0 mm
21:57 5.1 °F /  -14.9 °C 3.1 °F /  -16.1 °C 1021.9 in /  34601.5 hPa NE 7.1 mph /  11.4 km/h 19.5 mph /  31.4 km/h 87 % 0.0 in /  0 mm
22:06 5.1 °F /  -14.9 °C 3.1 °F /  -16.1 °C 1021.9 in /  34601.5 hPa ENE 7.6 mph /  12.2 km/h 13.7 mph /  22 km/h 87 % 0.0 in /  0 mm
22:27 5.1 °F /  -14.9 °C 2.9 °F /  -16.2 °C 1022.9 in /  34635.4 hPa ENE 9.3 mph /  15 km/h 19.8 mph /  31.9 km/h 86 % 0.0 in /  0 mm
22:33 5.1 °F /  -14.9 °C 2.9 °F /  -16.2 °C 1022.9 in /  34635.4 hPa ENE 9.3 mph /  15 km/h 17.2 mph /  27.7 km/h 86 % 0.0 in /  0 mm
22:40 5.0 °F /  -15 °C 2.8 °F /  -16.2 °C 1022.9 in /  34635.4 hPa NE 10.1 mph /  16.3 km/h 17.2 mph /  27.7 km/h 86 % 0.0 in /  0 mm
22:50 5.0 °F /  -15 °C 2.8 °F /  -16.2 °C 1022.9 in /  34635.4 hPa ENE 10.1 mph /  16.3 km/h 19.5 mph /  31.4 km/h 86 % 0.0 in /  0 mm
23:00 5.0 °F /  -15 °C 2.8 °F /  -16.2 °C 1022.9 in /  34635.4 hPa ENE 10.3 mph /  16.6 km/h 20.9 mph /  33.6 km/h 86 % 0.0 in /  0 mm
23:08 5.0 °F /  -15 °C 2.8 °F /  -16.2 °C 1022.9 in /  34635.4 hPa East 8.2 mph /  13.2 km/h 20.9 mph /  33.6 km/h 86 % 0.0 in /  0 mm
23:16 5.0 °F /  -15 °C 2.8 °F /  -16.2 °C 1022.9 in /  34635.4 hPa ENE 8.8 mph /  14.2 km/h 16.6 mph /  26.7 km/h 86 % 0.0 in /  0 mm
23:23 4.9 °F /  -15.1 °C 2.8 °F /  -16.2 °C 1022.9 in /  34635.4 hPa ENE 7.7 mph /  12.4 km/h 19.5 mph /  31.4 km/h 86 % 0.0 in /  0 mm
23:32 4.9 °F /  -15.1 °C 2.8 °F /  -16.2 °C 1022.9 in /  34635.4 hPa East 7.6 mph /  12.2 km/h 13.0 mph /  20.9 km/h 86 % 0.0 in /  0 mm
23:37 4.8 °F /  -15.1 °C 2.7 °F /  -16.3 °C 1022.9 in /  34635.4 hPa ENE 7.4 mph /  11.9 km/h 13.0 mph /  20.9 km/h 86 % 0.0 in /  0 mm
23:46 4.8 °F /  -15.1 °C 2.7 °F /  -16.3 °C 1022.9 in /  34635.4 hPa NE 5.5 mph /  8.9 km/h 11.1 mph /  17.9 km/h 86 % 0.0 in /  0 mm
23:58 4.8 °F /  -15.1 °C 2.7 °F /  -16.3 °C 1022.9 in /  34635.4 hPa ENE 6.0 mph /  9.7 km/h 10.1 mph /  16.3 km/h 86 % 0.0 in /  0 mm
Vremenska postaja Senovo
Podatki zbrani iz Weather Underground - 2.25 mb

Script developed by  Jim McMurry - jmcmurry@mwt.net Adapted for the template by  Wim van der Kuil - Leuven-Template.eu

Vremenski podatki so objavljeni na:

European Weather Network

WeatherCloud

Weather Underground

AWEKAS

HAMweather, WeatherForYou, PWS Weather

MapView

Geostik

Slovenia weather network

Oprema, ki se uporablja:

Vremenski program
Cumulus

Vremenski server
Asus

Cumulus

Asus